createdAt,value
2024-02-01T00:00:05.896Z,27.68
2024-02-01T00:01:05.880Z,27.63
2024-02-01T00:02:05.786Z,27.66
2024-02-01T00:03:05.894Z,27.65
2024-02-01T00:04:05.768Z,27.71
2024-02-01T00:05:05.843Z,27.57
2024-02-01T00:58:03.124Z,27.42
2024-02-01T00:59:04.094Z,27.48
2024-02-01T01:00:04.154Z,27.42
2024-02-01T01:01:04.393Z,27.45
2024-02-01T01:02:04.142Z,27.44
2024-02-01T01:03:04.104Z,27.46
2024-02-01T01:04:04.079Z,27.42
2024-02-01T01:05:04.821Z,27.40
2024-02-01T01:06:04.063Z,27.46
2024-02-01T01:07:03.963Z,27.39
2024-02-01T01:08:03.992Z,27.39
2024-02-01T01:09:04.000Z,27.25
2024-02-01T01:10:03.925Z,27.31
2024-02-01T01:11:03.921Z,27.42
2024-02-01T01:12:03.912Z,27.45
2024-02-01T01:13:03.865Z,27.41
2024-02-01T01:14:03.882Z,27.45
2024-02-01T01:15:03.945Z,27.39
2024-02-01T01:16:03.850Z,27.39
2024-02-01T01:17:03.828Z,27.41
2024-02-01T01:18:04.288Z,27.41
2024-02-01T01:19:03.989Z,27.32
2024-02-01T01:20:03.863Z,27.35
2024-02-01T01:21:03.914Z,27.38
2024-02-01T01:22:03.935Z,27.29
2024-02-01T01:23:03.945Z,27.32
2024-02-01T01:24:04.004Z,27.35
2024-02-01T01:25:03.989Z,27.26
2024-02-01T01:26:04.038Z,27.25
2024-02-01T01:27:04.054Z,27.17
2024-02-01T01:28:04.061Z,27.23
2024-02-01T01:29:04.095Z,27.39
2024-02-01T01:30:04.160Z,27.29
2024-02-01T01:31:04.133Z,27.33
2024-02-01T01:32:04.158Z,27.31
2024-02-01T01:33:04.269Z,27.26
2024-02-01T01:34:04.382Z,27.21
2024-02-01T01:35:04.285Z,27.22
2024-02-01T01:36:04.310Z,27.22
2024-02-01T01:37:04.278Z,27.35
2024-02-01T01:38:04.299Z,27.27
2024-02-01T01:39:04.455Z,27.20
2024-02-01T01:40:04.362Z,27.28
2024-02-01T01:41:04.387Z,27.31
2024-02-01T01:42:04.800Z,27.21
2024-02-01T01:43:04.821Z,27.25
2024-02-01T01:44:04.836Z,27.32
2024-02-01T01:45:04.917Z,27.25
2024-02-01T01:46:04.856Z,27.22
2024-02-01T01:47:04.851Z,27.25
2024-02-01T01:48:04.909Z,27.19
2024-02-01T01:49:04.885Z,27.29
2024-02-01T01:50:04.880Z,27.35
2024-02-01T01:51:04.840Z,27.23
2024-02-01T01:52:04.846Z,27.22
2024-02-01T01:53:04.843Z,27.25
2024-02-01T01:54:04.867Z,27.20
2024-02-01T01:55:04.851Z,27.28
2024-02-01T01:56:04.847Z,27.32
2024-02-01T01:57:04.875Z,27.29
2024-02-01T01:58:04.892Z,27.20
2024-02-01T01:59:04.927Z,27.20
2024-02-01T02:00:04.965Z,27.20
2024-02-01T02:01:05.051Z,27.19
2024-02-01T02:02:05.038Z,27.19
2024-02-01T02:03:05.083Z,27.26
2024-02-01T02:04:05.104Z,27.29
2024-02-01T02:05:05.088Z,27.31
2024-02-01T02:06:05.168Z,27.22
2024-02-01T02:07:05.136Z,27.20
2024-02-01T02:08:05.175Z,27.23
2024-02-01T02:09:05.253Z,27.22
2024-02-01T02:10:05.247Z,27.25
2024-02-01T02:11:05.253Z,27.28
2024-02-01T02:12:05.352Z,27.16
2024-02-01T02:13:05.300Z,27.20
2024-02-01T02:14:05.333Z,27.19
2024-02-01T02:15:05.421Z,27.16
2024-02-01T02:16:05.397Z,27.20
2024-02-01T02:17:05.462Z,27.20
2024-02-01T02:18:05.951Z,27.19
2024-02-01T02:19:06.041Z,27.08
2024-02-01T02:20:05.853Z,27.17
2024-02-01T02:21:05.912Z,27.17
2024-02-01T02:22:05.843Z,27.23
2024-02-01T02:23:05.868Z,27.16
2024-02-01T02:24:05.860Z,27.17
2024-02-01T02:25:05.843Z,27.15
2024-02-01T02:26:05.851Z,27.07
2024-02-01T02:27:05.957Z,27.26
2024-02-01T02:28:05.862Z,27.10
2024-02-01T02:29:05.854Z,27.15
2024-02-01T02:30:06.661Z,27.16
2024-02-01T02:31:05.855Z,27.16
2024-02-01T02:32:05.857Z,27.09
2024-02-01T02:33:06.020Z,27.04
2024-02-01T02:34:06.104Z,27.13
2024-02-01T02:35:05.923Z,27.02
2024-02-01T02:36:06.032Z,27.06
2024-02-01T02:37:05.990Z,27.03
2024-02-01T02:38:06.015Z,27.12
2024-02-01T02:39:06.054Z,27.12
2024-02-01T02:40:06.069Z,27.10
2024-02-01T02:41:06.105Z,27.10
2024-02-01T02:42:06.197Z,27.12
2024-02-01T02:43:06.169Z,27.03
2024-02-01T02:44:06.198Z,27.13
2024-02-01T02:45:06.253Z,27.07
2024-02-01T02:46:06.250Z,27.13
2024-02-01T02:47:06.283Z,27.10
2024-02-01T02:48:06.516Z,27.17
2024-02-01T02:49:06.440Z,27.09
2024-02-01T02:50:06.383Z,27.13
2024-02-01T02:51:06.410Z,27.06
2024-02-01T02:52:06.430Z,27.01
2024-02-01T02:53:06.429Z,27.00
2024-02-01T02:54:06.484Z,27.03
2024-02-01T02:55:06.465Z,26.96
2024-02-01T02:56:06.485Z,26.89
2024-02-01T02:57:06.551Z,27.02
2024-02-01T02:58:06.536Z,27.12
2024-02-01T02:59:06.558Z,27.11
2024-02-01T03:00:07.413Z,26.99
2024-02-01T03:01:06.626Z,27.03
2024-02-01T03:02:06.650Z,27.08
2024-02-01T03:03:06.770Z,27.13
2024-02-01T03:04:06.732Z,27.09
2024-02-01T03:05:06.721Z,27.08
2024-02-01T03:06:06.948Z,26.95
2024-02-01T03:07:06.895Z,26.89
2024-02-01T03:08:06.815Z,26.86
2024-02-01T03:09:06.899Z,26.99
2024-02-01T03:10:06.864Z,26.99
2024-02-01T03:11:06.890Z,27.03
2024-02-01T03:12:07.068Z,26.90
2024-02-01T03:13:06.944Z,26.99
2024-02-01T03:14:06.976Z,26.90
2024-02-01T03:15:07.085Z,26.90
2024-02-01T03:16:07.028Z,26.93
2024-02-01T03:17:07.063Z,26.92
2024-02-01T03:18:07.251Z,27.00
2024-02-01T03:19:07.211Z,26.96
2024-02-01T03:20:07.146Z,27.02
2024-02-01T03:21:07.197Z,26.93
2024-02-01T03:22:07.220Z,27.00
2024-02-01T03:23:07.294Z,26.93
2024-02-01T03:24:07.258Z,26.93
2024-02-01T03:25:07.271Z,26.99
2024-02-01T03:26:07.304Z,26.99
2024-02-01T03:27:07.371Z,26.96
2024-02-01T03:28:07.358Z,26.99
2024-02-01T03:29:07.635Z,26.99
2024-02-01T03:30:07.446Z,26.99
2024-02-01T03:31:07.447Z,26.96
2024-02-01T03:32:08.128Z,26.97
2024-02-01T03:33:07.626Z,26.94
2024-02-01T03:34:07.807Z,26.99
2024-02-01T03:35:07.561Z,26.86
2024-02-01T03:36:07.617Z,26.89
2024-02-01T03:37:07.615Z,26.82
2024-02-01T03:38:07.665Z,26.86
2024-02-01T03:39:07.725Z,26.97
2024-02-01T03:40:07.707Z,26.96
2024-02-01T03:41:07.755Z,26.95
2024-02-01T03:42:07.791Z,26.96
2024-02-01T03:43:07.805Z,26.95
2024-02-01T03:44:07.811Z,27.02
2024-02-01T03:45:07.903Z,27.03
2024-02-01T03:46:07.850Z,26.89
2024-02-01T03:47:07.877Z,26.93
2024-02-01T03:48:08.063Z,26.93
2024-02-01T03:49:08.108Z,26.95
2024-02-01T03:50:07.966Z,26.82
2024-02-01T03:51:08.052Z,26.92
2024-02-01T03:52:08.011Z,26.95
2024-02-01T03:53:08.043Z,26.96
2024-02-01T03:54:08.114Z,27.00
2024-02-01T03:55:08.092Z,26.93
2024-02-01T03:56:08.131Z,26.97
2024-02-01T03:57:08.406Z,26.95
2024-02-01T03:58:08.180Z,27.00
2024-02-01T03:59:08.216Z,26.76
2024-02-01T04:00:08.287Z,26.89
2024-02-01T04:01:08.327Z,26.82
2024-02-01T04:02:08.309Z,26.76
2024-02-01T04:03:08.355Z,26.76
2024-02-01T04:04:08.475Z,26.81
2024-02-01T04:05:08.396Z,26.73
2024-02-01T04:06:08.511Z,26.86
2024-02-01T04:07:08.542Z,26.97
2024-02-01T04:08:08.570Z,26.93
2024-02-01T04:09:08.550Z,26.81
2024-02-01T04:10:08.568Z,26.93
2024-02-01T04:11:08.598Z,26.91
2024-02-01T04:12:09.242Z,26.77
2024-02-01T04:13:08.651Z,26.92
2024-02-01T04:14:08.643Z,26.86
2024-02-01T04:15:08.761Z,26.82
2024-02-01T04:16:08.693Z,26.90
2024-02-01T04:17:08.717Z,26.87
2024-02-01T04:18:09.158Z,26.85
2024-02-01T04:19:10.800Z,26.90
2024-02-01T04:20:08.758Z,26.83
2024-02-01T04:21:08.785Z,26.80
2024-02-01T04:22:08.734Z,26.77
2024-02-01T04:23:08.721Z,26.89
2024-02-01T04:24:08.787Z,26.83
2024-02-01T04:25:09.739Z,26.81
2024-02-01T04:26:08.730Z,26.76
2024-02-01T04:27:08.680Z,26.80
2024-02-01T04:28:08.724Z,26.90
2024-02-01T04:29:08.640Z,26.86
2024-02-01T04:30:08.668Z,26.79
2024-02-01T04:31:08.618Z,26.83
2024-02-01T04:32:08.647Z,26.76
2024-02-01T04:33:09.277Z,26.84
2024-02-01T04:34:08.761Z,26.72
2024-02-01T04:35:08.682Z,26.72
2024-02-01T04:36:08.727Z,26.83
2024-02-01T04:37:08.665Z,26.80
2024-02-01T04:38:08.690Z,26.84
2024-02-01T04:39:08.725Z,26.79
2024-02-01T04:40:08.736Z,26.78
2024-02-01T04:41:08.798Z,26.74
2024-02-01T04:42:08.824Z,26.77
2024-02-01T04:43:08.943Z,26.83
2024-02-01T04:44:08.935Z,26.74
2024-02-01T04:45:08.871Z,26.76
2024-02-01T04:46:08.975Z,26.72
2024-02-01T04:47:08.923Z,26.73
2024-02-01T04:48:09.021Z,26.74
2024-02-01T04:49:09.151Z,26.74
2024-02-01T04:50:09.056Z,26.79
2024-02-01T04:51:09.088Z,26.70
2024-02-01T04:52:09.063Z,26.72
2024-02-01T04:53:09.097Z,26.70
2024-02-01T04:54:09.752Z,26.76
2024-02-01T04:55:17.180Z,26.72
2024-02-01T04:56:18.073Z,26.76
2024-02-01T04:57:18.118Z,26.73
2024-02-01T04:58:18.074Z,26.68
2024-02-01T04:59:18.080Z,26.79
2024-02-01T05:00:18.257Z,26.80
2024-02-01T05:01:18.182Z,26.74
2024-02-01T05:02:18.216Z,26.77
2024-02-01T05:03:18.379Z,26.64
2024-02-01T05:04:18.122Z,26.68
2024-02-01T05:05:18.085Z,26.68
2024-02-01T05:06:18.122Z,26.73
2024-02-01T05:07:18.148Z,26.79
2024-02-01T05:08:18.089Z,26.72
2024-02-01T05:09:18.129Z,26.74
2024-02-01T05:10:18.111Z,26.74
2024-02-01T05:11:18.111Z,26.70
2024-02-01T05:12:18.197Z,26.68
2024-02-01T05:13:18.135Z,26.68
2024-02-01T05:14:18.122Z,26.64
2024-02-01T05:15:18.299Z,26.69
2024-02-01T05:16:18.136Z,26.68
2024-02-01T05:17:18.134Z,26.76
2024-02-01T05:18:18.260Z,26.76
2024-02-01T05:19:18.363Z,26.67
2024-02-01T05:20:18.166Z,26.70
2024-02-01T05:21:18.269Z,26.66
2024-02-01T05:22:18.676Z,26.63
2024-02-01T05:23:18.175Z,26.72
2024-02-01T05:24:18.211Z,26.67
2024-02-01T05:25:18.152Z,26.66
2024-02-01T05:26:18.164Z,26.64
2024-02-01T05:27:18.256Z,26.59
2024-02-01T05:28:18.164Z,26.50
2024-02-01T05:29:18.199Z,26.61
2024-02-01T05:30:21.070Z,26.61
2024-02-01T05:31:18.190Z,26.66
2024-02-01T05:32:18.784Z,26.57
2024-02-01T05:33:18.236Z,26.53
2024-02-01T05:34:18.379Z,26.59
2024-02-01T05:35:18.158Z,26.57
2024-02-01T05:36:18.196Z,26.60
2024-02-01T05:37:18.174Z,26.64
2024-02-01T05:38:18.160Z,26.60
2024-02-01T05:39:18.269Z,26.60
2024-02-01T05:40:18.234Z,26.61
2024-02-01T05:41:18.221Z,26.59
2024-02-01T05:42:18.244Z,26.55
2024-02-01T05:43:18.174Z,26.50
2024-02-01T05:44:18.146Z,26.60
2024-02-01T05:45:18.255Z,26.64
2024-02-01T05:46:18.146Z,26.67
2024-02-01T05:47:18.301Z,26.56
2024-02-01T05:48:18.468Z,26.64
2024-02-01T05:49:18.369Z,26.60
2024-02-01T05:50:18.300Z,26.57
2024-02-01T05:51:18.348Z,26.58
2024-02-01T05:52:18.685Z,26.56
2024-02-01T05:53:18.300Z,26.54
2024-02-01T05:54:18.329Z,26.63
2024-02-01T05:55:18.294Z,26.68
2024-02-01T05:56:18.308Z,26.57
2024-02-01T05:57:18.402Z,26.63
2024-02-01T05:58:18.318Z,26.60
2024-02-01T05:59:18.313Z,26.54
2024-02-01T06:00:18.466Z,26.54
2024-02-01T06:01:18.584Z,26.45
2024-02-01T06:02:18.313Z,26.53
2024-02-01T06:03:18.372Z,26.43
2024-02-01T06:04:18.304Z,26.55
2024-02-01T06:05:18.311Z,26.63
2024-02-01T06:06:18.396Z,26.56
2024-02-01T06:07:19.212Z,26.48
2024-02-01T06:08:18.386Z,26.48
2024-02-01T06:09:18.575Z,26.55
2024-02-01T06:10:18.454Z,26.48
2024-02-01T06:11:18.471Z,26.50
2024-02-01T06:12:18.716Z,26.54
2024-02-01T06:13:18.708Z,26.48
2024-02-01T06:14:18.581Z,26.47
2024-02-01T06:15:18.723Z,26.41
2024-02-01T06:16:18.604Z,26.50
2024-02-01T06:17:18.664Z,26.46
2024-02-01T06:18:18.792Z,26.51
2024-02-01T06:19:18.822Z,26.53
2024-02-01T06:20:18.717Z,26.51
2024-02-01T06:21:18.887Z,26.48
2024-02-01T06:22:18.760Z,26.52
2024-02-01T06:23:20.694Z,26.60
2024-02-01T06:24:18.958Z,26.53
2024-02-01T06:25:18.773Z,26.47
2024-02-01T06:26:18.782Z,26.51
2024-02-01T06:27:18.931Z,26.51
2024-02-01T06:28:19.692Z,26.47
2024-02-01T06:29:18.795Z,26.41
2024-02-01T06:30:18.924Z,26.44
2024-02-01T06:31:18.806Z,26.50
2024-02-01T06:32:18.804Z,26.48
2024-02-01T06:33:18.942Z,26.55
2024-02-01T06:34:18.813Z,26.47
2024-02-01T06:35:19.686Z,26.42
2024-02-01T06:36:19.311Z,26.53
2024-02-01T06:37:19.238Z,26.55
2024-02-01T06:38:18.844Z,26.59
2024-02-01T06:39:19.134Z,26.50
2024-02-01T06:40:18.803Z,26.66
2024-02-01T06:41:18.834Z,26.66
2024-02-01T06:42:19.017Z,26.17
2024-02-01T06:43:19.085Z,25.13
2024-02-01T06:44:18.807Z,25.37
2024-02-01T06:45:18.894Z,26.01
2024-02-01T06:46:19.261Z,26.44
2024-02-01T06:47:19.210Z,26.47
2024-02-01T06:48:19.004Z,26.66
2024-02-01T06:49:19.061Z,26.60
2024-02-01T06:50:19.024Z,26.60
2024-02-01T06:51:19.323Z,26.66
2024-02-01T06:52:19.173Z,26.77
2024-02-01T06:53:19.088Z,26.94
2024-02-01T06:54:19.051Z,27.34
2024-02-01T06:55:19.015Z,27.51
2024-02-01T06:56:19.223Z,27.66
2024-02-01T06:57:19.261Z,28.15
2024-02-01T06:58:19.082Z,28.34
2024-02-01T06:59:19.051Z,28.74
2024-02-01T07:00:26.540Z,29.07
2024-02-01T07:01:19.226Z,29.15
2024-02-01T07:02:19.092Z,29.44
2024-02-01T07:03:19.397Z,29.77
2024-02-01T07:04:19.283Z,29.81
2024-02-01T07:05:26.714Z,29.85
2024-02-01T07:06:19.514Z,30.10
2024-02-01T07:07:19.224Z,30.25
2024-02-01T07:08:19.045Z,30.48
2024-02-01T07:09:19.207Z,30.45
2024-02-01T07:10:19.027Z,30.54
2024-02-01T07:11:19.237Z,30.66
2024-02-01T07:12:19.109Z,30.81
2024-02-01T07:13:19.219Z,30.83
2024-02-01T07:14:18.999Z,30.90
2024-02-01T07:15:19.931Z,31.05
2024-02-01T07:16:40.247Z,31.23
2024-02-01T07:17:19.009Z,31.15
2024-02-01T07:18:19.140Z,31.43
2024-02-01T07:19:22.955Z,31.50
2024-02-01T07:20:19.426Z,31.57
2024-02-01T07:21:19.252Z,31.64
2024-02-01T07:22:19.720Z,31.87
2024-02-01T07:23:19.084Z,31.85
2024-02-01T07:24:21.860Z,32.01
2024-02-01T07:25:21.812Z,32.17
2024-02-01T07:26:19.573Z,32.24
2024-02-01T07:27:19.101Z,32.36
2024-02-01T07:28:19.047Z,32.28
2024-02-01T07:29:20.030Z,32.49
2024-02-01T07:30:19.143Z,32.50
2024-02-01T07:31:19.234Z,32.72
2024-02-01T07:32:18.985Z,32.68
2024-02-01T07:33:19.129Z,32.70
2024-02-01T07:34:19.088Z,32.88
2024-02-01T07:35:18.935Z,32.91
2024-02-01T07:36:19.365Z,33.05
2024-02-01T07:37:18.953Z,32.93
2024-02-01T07:38:37.283Z,33.01
2024-02-01T07:39:18.979Z,33.05
2024-02-01T07:40:18.826Z,33.21
2024-02-01T07:41:19.228Z,33.16
2024-02-01T07:42:18.827Z,33.35
2024-02-01T07:43:18.772Z,33.29
2024-02-01T07:44:19.732Z,33.35
2024-02-01T07:45:18.866Z,33.39
2024-02-01T07:46:18.730Z,33.33
2024-02-01T07:47:18.676Z,33.45
2024-02-01T07:48:19.389Z,33.56
2024-02-01T07:49:18.858Z,33.51
2024-02-01T07:50:18.594Z,33.64
2024-02-01T07:51:21.498Z,33.83
2024-02-01T07:52:18.748Z,33.84
2024-02-01T07:53:33.565Z,33.90
2024-02-01T07:54:18.573Z,34.14
2024-02-01T07:55:18.620Z,34.14
2024-02-01T07:56:18.756Z,34.06
2024-02-01T07:58:17.412Z,34.29
2024-02-01T07:59:18.419Z,34.20
2024-02-01T08:00:18.421Z,34.33
2024-02-01T08:01:34.024Z,34.31
2024-02-01T08:02:18.727Z,34.35
2024-02-01T08:03:18.648Z,34.36
2024-02-01T08:04:19.461Z,34.38
2024-02-01T08:05:18.281Z,34.38
2024-02-01T08:06:18.408Z,34.40
2024-02-01T08:07:25.732Z,34.43
2024-02-01T08:08:18.259Z,34.28
2024-02-01T08:09:18.465Z,34.32
2024-02-01T08:10:18.268Z,34.52
2024-02-01T08:11:20.800Z,34.56
2024-02-01T08:12:26.318Z,34.38
2024-02-01T08:13:18.276Z,34.40
2024-02-01T08:14:18.257Z,34.47
2024-02-01T08:15:18.341Z,34.36
2024-02-01T08:16:18.224Z,34.26
2024-02-01T08:17:18.249Z,34.35
2024-02-01T08:18:18.252Z,34.44
2024-02-01T08:19:25.749Z,34.27
2024-02-01T08:20:18.188Z,34.29
2024-02-01T08:21:18.312Z,34.33
2024-02-01T08:22:18.490Z,34.44
2024-02-01T08:23:20.758Z,34.26
2024-02-01T08:24:21.510Z,34.20
2024-02-01T08:25:18.383Z,34.32
2024-02-01T08:26:18.254Z,34.39
2024-02-01T08:27:18.092Z,34.33
2024-02-01T08:28:18.251Z,34.38
2024-02-01T08:29:33.112Z,34.27
2024-02-01T08:30:18.228Z,34.18
2024-02-01T08:31:18.423Z,34.23
2024-02-01T08:32:39.169Z,34.33
2024-02-01T08:33:34.098Z,34.41
2024-02-01T08:34:18.530Z,34.41
2024-02-01T08:35:17.916Z,34.27
2024-02-01T08:36:17.824Z,34.47
2024-02-01T08:37:24.796Z,34.32
2024-02-01T08:38:18.061Z,32.33
2024-02-01T08:39:18.232Z,30.67
2024-02-01T08:40:17.869Z,30.01
2024-02-01T08:42:34.255Z,28.68
2024-02-01T08:43:17.788Z,28.94
2024-02-01T08:44:17.642Z,28.33
2024-02-01T08:45:17.684Z,28.04
2024-02-01T08:46:17.763Z,28.52
2024-02-01T08:47:17.769Z,27.68
2024-02-01T08:48:17.631Z,27.52
2024-02-01T08:49:20.365Z,27.74
2024-02-01T08:50:17.488Z,28.74
2024-02-01T08:51:17.634Z,28.97
2024-02-01T08:52:17.757Z,29.29
2024-02-01T08:53:17.446Z,29.50
2024-02-01T08:54:17.657Z,29.92
2024-02-01T08:55:17.682Z,30.13
2024-02-01T08:56:17.777Z,30.25
2024-02-01T08:57:17.726Z,30.45
2024-02-01T08:58:17.414Z,30.73
2024-02-01T08:59:17.387Z,30.78
2024-02-01T09:00:17.826Z,30.96
2024-02-01T09:01:18.297Z,31.10
2024-02-01T09:02:17.276Z,31.21
2024-02-01T09:03:17.977Z,31.23
2024-02-01T09:04:17.328Z,31.33
2024-02-01T09:05:17.564Z,31.41
2024-02-01T09:06:18.942Z,30.82
2024-02-01T09:07:17.472Z,29.05
2024-02-01T09:08:17.163Z,27.98
2024-02-01T09:09:17.525Z,27.00
2024-02-01T09:10:21.413Z,26.57
2024-02-01T09:11:17.772Z,26.64
2024-02-01T09:12:17.482Z,26.30
2024-02-01T09:13:17.452Z,25.67
2024-02-01T09:14:17.499Z,25.44
2024-02-01T09:15:17.853Z,25.02
2024-02-01T09:16:17.755Z,25.36
2024-02-01T09:17:18.548Z,24.52
2024-02-01T09:18:17.758Z,24.93
2024-02-01T09:19:17.748Z,24.49
2024-02-01T09:20:17.758Z,24.40
2024-02-01T09:21:17.829Z,24.46
2024-02-01T09:22:17.877Z,24.20
2024-02-01T09:23:18.389Z,24.60
2024-02-01T09:24:17.718Z,24.60
2024-02-01T09:25:18.101Z,24.67
2024-02-01T09:26:18.299Z,25.00
2024-02-01T09:27:18.115Z,25.23
2024-02-01T09:28:18.802Z,25.07
2024-02-01T09:29:18.181Z,25.01
2024-02-01T09:30:18.102Z,25.03
2024-02-01T09:31:18.281Z,25.15
2024-02-01T09:32:17.882Z,25.45
2024-02-01T09:33:18.132Z,26.16
2024-02-01T09:34:18.227Z,26.68
2024-02-01T09:35:17.971Z,26.98
2024-02-01T09:36:18.418Z,27.17
2024-02-01T09:37:18.273Z,27.25
2024-02-01T09:38:18.102Z,27.28
2024-02-01T09:39:18.030Z,27.28
2024-02-01T09:40:17.930Z,27.59
2024-02-01T09:41:17.897Z,27.97
2024-02-01T09:42:18.323Z,28.78
2024-02-01T09:43:18.110Z,28.60
2024-02-01T09:44:18.133Z,28.63
2024-02-01T09:45:18.000Z,28.51
2024-02-01T09:46:18.283Z,28.27
2024-02-01T09:47:18.296Z,28.37
2024-02-01T09:48:18.192Z,28.32
2024-02-01T09:49:21.907Z,28.40
2024-02-01T09:50:18.139Z,28.39
2024-02-01T09:51:18.285Z,28.56
2024-02-01T09:52:18.009Z,28.68
2024-02-01T09:53:17.972Z,28.72
2024-02-01T09:54:18.011Z,28.85
2024-02-01T09:55:17.930Z,28.94
2024-02-01T09:56:18.332Z,29.01
2024-02-01T09:57:18.059Z,29.10
2024-02-01T09:58:18.279Z,29.06
2024-02-01T09:59:18.061Z,29.12
2024-02-01T10:00:17.989Z,29.11
2024-02-01T10:01:17.789Z,29.27
2024-02-01T10:02:17.750Z,29.24
2024-02-01T10:03:17.901Z,29.30
2024-02-01T10:04:20.099Z,29.48
2024-02-01T10:05:17.693Z,29.50
2024-02-01T10:06:17.859Z,29.56
2024-02-01T10:07:17.668Z,29.68
2024-02-01T10:08:17.782Z,29.72
2024-02-01T10:09:17.657Z,29.77
2024-02-01T10:10:19.115Z,29.90
2024-02-01T10:11:18.292Z,29.80
2024-02-01T10:12:17.852Z,29.84
2024-02-01T10:13:17.668Z,29.99
2024-02-01T10:14:18.697Z,30.02
2024-02-01T10:15:17.786Z,30.09
2024-02-01T10:16:17.901Z,30.17
2024-02-01T10:17:17.780Z,30.22
2024-02-01T10:18:18.401Z,30.25
2024-02-01T10:19:18.030Z,30.32
2024-02-01T10:20:18.286Z,30.38
2024-02-01T10:21:18.155Z,30.28
2024-02-01T10:22:18.039Z,30.41
2024-02-01T10:23:19.145Z,30.40
2024-02-01T10:24:18.196Z,30.41
2024-02-01T10:25:18.117Z,30.52
2024-02-01T10:26:18.173Z,30.65
2024-02-01T10:27:18.222Z,30.61
2024-02-01T10:28:18.305Z,30.69
2024-02-01T10:29:18.289Z,30.68
2024-02-01T10:30:18.331Z,30.78
2024-02-01T10:31:18.307Z,30.83
2024-02-01T10:32:18.364Z,30.67
2024-02-01T10:33:18.348Z,30.82
2024-02-01T10:34:18.410Z,30.72
2024-02-01T10:35:18.369Z,30.65
2024-02-01T10:36:19.219Z,30.60
2024-02-01T10:37:18.348Z,30.62
2024-02-01T10:38:18.465Z,30.56
2024-02-01T10:39:18.580Z,30.50
2024-02-01T10:40:21.336Z,30.46
2024-02-01T10:41:19.166Z,30.45
2024-02-01T10:42:18.479Z,30.42
2024-02-01T10:43:18.408Z,30.38
2024-02-01T10:44:19.143Z,30.36
2024-02-01T10:45:18.424Z,30.37
2024-02-01T10:46:18.323Z,30.14
2024-02-01T10:47:18.219Z,30.21
2024-02-01T10:48:18.400Z,30.27
2024-02-01T10:49:18.349Z,30.27
2024-02-01T10:50:18.163Z,30.20
2024-02-01T10:51:18.256Z,30.22
2024-02-01T10:52:18.294Z,30.23
2024-02-01T10:53:18.275Z,30.17
2024-02-01T10:54:18.225Z,30.20
2024-02-01T10:55:18.305Z,30.12
2024-02-01T10:56:18.212Z,30.22
2024-02-01T10:57:18.259Z,30.18
2024-02-01T10:58:18.241Z,30.15
2024-02-01T10:59:18.290Z,30.16
2024-02-01T11:00:18.379Z,30.11
2024-02-01T11:01:18.306Z,30.13
2024-02-01T11:02:18.297Z,30.11
2024-02-01T11:03:18.284Z,30.13
2024-02-01T11:04:18.264Z,30.12
2024-02-01T11:05:18.270Z,30.09
2024-02-01T11:06:18.459Z,30.03
2024-02-01T11:07:18.145Z,30.06
2024-02-01T11:08:18.160Z,30.05
2024-02-01T11:09:18.295Z,30.04
2024-02-01T11:10:17.745Z,30.03
2024-02-01T11:11:18.215Z,29.89
2024-02-01T11:12:17.713Z,30.01
2024-02-01T11:13:17.870Z,29.93
2024-02-01T11:14:17.676Z,29.96
2024-02-01T11:15:18.478Z,29.92
2024-02-01T11:16:17.811Z,29.91
2024-02-01T11:17:17.808Z,29.94
2024-02-01T11:18:17.855Z,29.82
2024-02-01T11:19:17.665Z,29.95
2024-02-01T11:20:17.590Z,29.97
2024-02-01T11:21:17.781Z,29.95
2024-02-01T11:22:17.815Z,29.82
2024-02-01T11:23:17.638Z,29.82
2024-02-01T11:24:17.607Z,29.86
2024-02-01T11:25:17.618Z,29.94
2024-02-01T11:26:18.309Z,29.87
2024-02-01T11:27:17.770Z,29.90
2024-02-01T11:28:17.629Z,29.91
2024-02-01T11:29:17.810Z,29.88
2024-02-01T11:30:17.693Z,29.84
2024-02-01T11:31:22.491Z,29.91
2024-02-01T11:32:17.704Z,29.91
2024-02-01T11:33:17.750Z,29.86
2024-02-01T11:34:17.797Z,29.80
2024-02-01T11:35:17.817Z,29.82
2024-02-01T11:36:17.757Z,29.77
2024-02-01T11:37:17.586Z,29.74
2024-02-01T11:38:17.814Z,29.71
2024-02-01T11:39:17.557Z,29.74
2024-02-01T11:40:17.572Z,29.73
2024-02-01T11:41:17.815Z,29.77
2024-02-01T11:42:24.163Z,29.78
2024-02-01T11:43:17.567Z,29.78
2024-02-01T11:44:17.475Z,29.78
2024-02-01T11:45:18.352Z,29.86
2024-02-01T11:46:17.819Z,29.87
2024-02-01T11:47:17.487Z,29.78
2024-02-01T11:48:17.589Z,29.75
2024-02-01T11:49:18.482Z,29.73
2024-02-01T11:50:17.455Z,29.75
2024-02-01T11:51:18.361Z,29.85
2024-02-01T11:52:17.514Z,29.75
2024-02-01T11:53:17.412Z,29.83
2024-02-01T11:54:17.926Z,29.73
2024-02-01T11:55:17.409Z,29.89
2024-02-01T11:56:17.823Z,29.81
2024-02-01T11:57:17.922Z,29.77
2024-02-01T11:58:18.399Z,29.78
2024-02-01T11:59:17.521Z,29.73
2024-02-01T12:00:24.510Z,29.74
2024-02-01T12:01:17.822Z,29.77
2024-02-01T12:02:17.868Z,29.81
2024-02-01T12:03:17.570Z,29.82
2024-02-01T12:04:17.593Z,29.84
2024-02-01T12:05:17.498Z,29.81
2024-02-01T12:06:17.564Z,29.74
2024-02-01T12:07:18.071Z,29.42
2024-02-01T12:08:17.462Z,28.57
2024-02-01T12:09:17.551Z,27.42
2024-02-01T12:10:17.423Z,27.52
2024-02-01T12:11:17.416Z,27.31
2024-02-01T12:12:17.941Z,27.20
2024-02-01T12:13:17.548Z,27.38
2024-02-01T12:14:17.405Z,27.28
2024-02-01T12:15:17.548Z,26.83
2024-02-01T12:16:17.397Z,26.74
2024-02-01T12:17:18.359Z,26.51
2024-02-01T12:18:17.516Z,26.61
2024-02-01T12:19:17.655Z,26.54
2024-02-01T12:20:17.834Z,26.58
2024-02-01T12:21:17.474Z,26.73
2024-02-01T12:22:17.839Z,26.55
2024-02-01T12:23:17.390Z,26.55
2024-02-01T12:24:24.533Z,26.66
2024-02-01T12:25:17.427Z,26.87
2024-02-01T12:26:17.847Z,26.94
2024-02-01T12:27:18.398Z,26.84
2024-02-01T12:28:17.832Z,26.96
2024-02-01T12:29:17.416Z,27.04
2024-02-01T12:30:17.483Z,27.80
2024-02-01T12:31:17.423Z,27.77
2024-02-01T12:32:17.844Z,27.38
2024-02-01T12:33:17.697Z,27.17
2024-02-01T12:34:17.814Z,27.40
2024-02-01T12:35:17.886Z,27.44
2024-02-01T12:36:17.721Z,27.27
2024-02-01T12:37:17.763Z,27.10
2024-02-01T12:38:18.000Z,27.11
2024-02-01T12:39:18.447Z,27.07
2024-02-01T12:40:18.072Z,26.99
2024-02-01T12:41:18.091Z,26.77
2024-02-01T12:42:18.154Z,26.75
2024-02-01T12:43:18.354Z,26.79
2024-02-01T12:44:20.998Z,26.74
2024-02-01T12:45:18.865Z,26.94
2024-02-01T12:46:18.542Z,27.17
2024-02-01T12:47:18.402Z,27.54
2024-02-01T12:48:18.872Z,27.52
2024-02-01T12:49:19.110Z,27.68
2024-02-01T12:50:18.486Z,27.69
2024-02-01T12:51:19.004Z,27.89
2024-02-01T12:52:18.358Z,27.89
2024-02-01T12:53:18.840Z,27.97
2024-02-01T12:54:18.432Z,28.08
2024-02-01T12:55:19.323Z,28.15
2024-02-01T12:56:18.450Z,28.08
2024-02-01T12:57:19.446Z,28.71
2024-02-01T12:58:18.629Z,28.84
2024-02-01T12:59:18.485Z,28.85
2024-02-01T13:00:19.408Z,28.79
2024-02-01T13:01:18.618Z,28.67
2024-02-01T13:02:18.531Z,28.66
2024-02-01T13:03:18.621Z,28.73
2024-02-01T13:04:18.653Z,28.67
2024-02-01T13:05:19.374Z,28.68
2024-02-01T13:06:19.256Z,28.66
2024-02-01T13:07:18.667Z,28.72
2024-02-01T13:08:18.679Z,29.45
2024-02-01T13:09:18.707Z,29.28
2024-02-01T13:10:18.727Z,29.25
2024-02-01T13:11:19.123Z,29.77
2024-02-01T13:12:19.058Z,29.86
2024-02-01T13:13:18.890Z,30.13
2024-02-01T13:14:18.961Z,30.38
2024-02-01T13:15:19.068Z,30.58
2024-02-01T13:16:19.867Z,30.82
2024-02-01T13:17:19.880Z,30.93
2024-02-01T13:18:19.990Z,30.91
2024-02-01T13:19:19.382Z,31.40
2024-02-01T13:20:19.404Z,31.26
2024-02-01T13:21:19.387Z,31.43
2024-02-01T13:22:21.873Z,31.63
2024-02-01T13:23:19.362Z,31.79
2024-02-01T13:24:19.271Z,31.76
2024-02-01T13:25:19.169Z,31.90
2024-02-01T13:26:19.272Z,31.86
2024-02-01T13:27:19.874Z,32.04
2024-02-01T13:28:19.170Z,32.02
2024-02-01T13:29:19.575Z,32.18
2024-02-01T13:30:19.509Z,32.26
2024-02-01T13:31:37.362Z,32.33
2024-02-01T13:32:19.565Z,32.41
2024-02-01T13:33:34.374Z,32.44
2024-02-01T13:34:19.316Z,32.50
2024-02-01T13:35:19.419Z,32.52
2024-02-01T13:36:19.385Z,32.72
2024-02-01T13:37:19.037Z,32.73
2024-02-01T13:38:19.012Z,32.66
2024-02-01T13:39:19.094Z,32.76
2024-02-01T13:40:19.375Z,32.81
2024-02-01T13:41:19.375Z,33.01
2024-02-01T13:47:18.246Z,33.18
2024-02-01T13:48:18.962Z,33.36
2024-02-01T13:49:18.875Z,33.30
2024-02-01T13:50:18.772Z,33.39
2024-02-01T13:51:19.394Z,33.55